sensor_id;sensor_type;location;lat;lon;timestamp;P1;durP1;ratioP1;P2;durP2;ratioP2
67248;SDS011;63247;54.300;18.592;2023-05-07T00:02:20;16.75;;;5.70;;
67248;SDS011;63247;54.300;18.592;2023-05-07T00:04:45;15.17;;;5.13;;
67248;SDS011;63247;54.300;18.592;2023-05-07T00:07:11;11.53;;;5.10;;
67248;SDS011;63247;54.300;18.592;2023-05-07T00:09:36;10.87;;;5.07;;
67248;SDS011;63247;54.300;18.592;2023-05-07T00:12:02;13.23;;;5.03;;
67248;SDS011;63247;54.300;18.592;2023-05-07T00:14:27;13.32;;;5.15;;
67248;SDS011;63247;54.300;18.592;2023-05-07T00:16:53;14.30;;;5.70;;
67248;SDS011;63247;54.300;18.592;2023-05-07T00:19:18;14.00;;;4.60;;
67248;SDS011;63247;54.300;18.592;2023-05-07T00:21:43;11.17;;;4.83;;
67248;SDS011;63247;54.300;18.592;2023-05-07T00:24:09;12.73;;;4.47;;
67248;SDS011;63247;54.300;18.592;2023-05-07T00:26:34;12.37;;;5.10;;
67248;SDS011;63247;54.300;18.592;2023-05-07T00:29:00;12.07;;;5.13;;
67248;SDS011;63247;54.300;18.592;2023-05-07T00:31:25;13.90;;;5.50;;
67248;SDS011;63247;54.300;18.592;2023-05-07T00:33:51;12.60;;;5.27;;
67248;SDS011;63247;54.300;18.592;2023-05-07T00:36:16;11.77;;;5.00;;
67248;SDS011;63247;54.300;18.592;2023-05-07T00:38:41;15.73;;;5.00;;
67248;SDS011;63247;54.300;18.592;2023-05-07T00:41:07;13.67;;;4.93;;
67248;SDS011;63247;54.300;18.592;2023-05-07T00:43:32;11.67;;;4.33;;
67248;SDS011;63247;54.300;18.592;2023-05-07T00:45:58;11.97;;;4.63;;
67248;SDS011;63247;54.300;18.592;2023-05-07T00:48:23;10.03;;;3.97;;
67248;SDS011;63247;54.300;18.592;2023-05-07T00:50:49;11.85;;;4.60;;
67248;SDS011;63247;54.300;18.592;2023-05-07T00:53:15;11.45;;;4.57;;
67248;SDS011;63247;54.300;18.592;2023-05-07T00:55:41;13.00;;;4.40;;
67248;SDS011;63247;54.300;18.592;2023-05-07T00:58:06;11.32;;;4.30;;
67248;SDS011;63247;54.300;18.592;2023-05-07T01:00:33;12.32;;;4.30;;
67248;SDS011;63247;54.300;18.592;2023-05-07T01:02:59;11.03;;;4.60;;
67248;SDS011;63247;54.300;18.592;2023-05-07T01:05:24;10.52;;;4.18;;
67248;SDS011;63247;54.300;18.592;2023-05-07T01:07:52;13.82;;;4.30;;
67248;SDS011;63247;54.300;18.592;2023-05-07T01:10:19;13.13;;;4.03;;
67248;SDS011;63247;54.300;18.592;2023-05-07T01:12:45;9.82;;;4.07;;
67248;SDS011;63247;54.300;18.592;2023-05-07T01:15:13;14.35;;;4.35;;
67248;SDS011;63247;54.300;18.592;2023-05-07T01:17:39;10.07;;;4.03;;
67248;SDS011;63247;54.300;18.592;2023-05-07T01:20:06;11.10;;;3.75;;
67248;SDS011;63247;54.300;18.592;2023-05-07T01:25:02;9.82;;;4.05;;
67248;SDS011;63247;54.300;18.592;2023-05-07T01:27:28;11.70;;;4.20;;
67248;SDS011;63247;54.300;18.592;2023-05-07T01:29:53;14.13;;;4.23;;
67248;SDS011;63247;54.300;18.592;2023-05-07T01:32:21;11.52;;;4.43;;
67248;SDS011;63247;54.300;18.592;2023-05-07T01:34:53;13.00;;;4.63;;
67248;SDS011;63247;54.300;18.592;2023-05-07T01:37:20;11.07;;;4.90;;
67248;SDS011;63247;54.300;18.592;2023-05-07T01:39:46;13.82;;;4.78;;
67248;SDS011;63247;54.300;18.592;2023-05-07T01:42:13;16.17;;;5.18;;
67248;SDS011;63247;54.300;18.592;2023-05-07T01:44:38;12.77;;;5.10;;
67248;SDS011;63247;54.300;18.592;2023-05-07T01:47:04;15.95;;;5.22;;
67248;SDS011;63247;54.300;18.592;2023-05-07T01:49:31;15.27;;;5.53;;
67248;SDS011;63247;54.300;18.592;2023-05-07T01:51:56;13.70;;;5.20;;
67248;SDS011;63247;54.300;18.592;2023-05-07T01:54:26;14.55;;;5.32;;
67248;SDS011;63247;54.300;18.592;2023-05-07T01:56:52;13.27;;;4.73;;
67248;SDS011;63247;54.300;18.592;2023-05-07T01:59:18;13.88;;;4.88;;
67248;SDS011;63247;54.300;18.592;2023-05-07T02:01:43;13.03;;;5.57;;
67248;SDS011;63247;54.300;18.592;2023-05-07T02:04:09;16.23;;;6.75;;
67248;SDS011;63247;54.300;18.592;2023-05-07T02:06:34;18.92;;;8.82;;
67248;SDS011;63247;54.300;18.592;2023-05-07T02:09:00;17.03;;;7.50;;
67248;SDS011;63247;54.300;18.592;2023-05-07T02:11:26;16.95;;;6.40;;
67248;SDS011;63247;54.300;18.592;2023-05-07T02:13:51;16.17;;;5.90;;
67248;SDS011;63247;54.300;18.592;2023-05-07T02:16:18;16.58;;;6.07;;
67248;SDS011;63247;54.300;18.592;2023-05-07T02:18:44;15.98;;;6.45;;
67248;SDS011;63247;54.300;18.592;2023-05-07T02:21:09;13.57;;;6.03;;
67248;SDS011;63247;54.300;18.592;2023-05-07T02:23:35;19.30;;;6.80;;
67248;SDS011;63247;54.300;18.592;2023-05-07T02:26:00;15.73;;;7.07;;
67248;SDS011;63247;54.300;18.592;2023-05-07T02:28:25;15.70;;;7.03;;
67248;SDS011;63247;54.300;18.592;2023-05-07T02:30:51;14.15;;;6.65;;
67248;SDS011;63247;54.300;18.592;2023-05-07T02:33:17;16.50;;;6.18;;
67248;SDS011;63247;54.300;18.592;2023-05-07T02:35:43;17.40;;;6.00;;
67248;SDS011;63247;54.300;18.592;2023-05-07T02:38:08;14.15;;;5.70;;
67248;SDS011;63247;54.300;18.592;2023-05-07T02:40:35;18.67;;;6.17;;
67248;SDS011;63247;54.300;18.592;2023-05-07T02:43:04;15.90;;;5.85;;
67248;SDS011;63247;54.300;18.592;2023-05-07T02:45:30;15.80;;;6.25;;
67248;SDS011;63247;54.300;18.592;2023-05-07T02:47:56;17.83;;;6.40;;
67248;SDS011;63247;54.300;18.592;2023-05-07T02:50:21;16.73;;;6.30;;
67248;SDS011;63247;54.300;18.592;2023-05-07T02:52:47;18.87;;;6.97;;
67248;SDS011;63247;54.300;18.592;2023-05-07T02:55:12;17.13;;;6.57;;
67248;SDS011;63247;54.300;18.592;2023-05-07T02:57:38;19.17;;;6.88;;
67248;SDS011;63247;54.300;18.592;2023-05-07T03:00:10;18.15;;;7.03;;
67248;SDS011;63247;54.300;18.592;2023-05-07T03:02:39;20.77;;;9.07;;
67248;SDS011;63247;54.300;18.592;2023-05-07T03:05:04;18.25;;;6.85;;
67248;SDS011;63247;54.300;18.592;2023-05-07T03:07:30;18.53;;;7.93;;
67248;SDS011;63247;54.300;18.592;2023-05-07T03:09:56;18.07;;;7.63;;
67248;SDS011;63247;54.300;18.592;2023-05-07T03:12:21;18.38;;;7.40;;
67248;SDS011;63247;54.300;18.592;2023-05-07T03:14:46;16.20;;;6.13;;
67248;SDS011;63247;54.300;18.592;2023-05-07T03:17:12;14.57;;;6.00;;
67248;SDS011;63247;54.300;18.592;2023-05-07T03:19:37;17.37;;;6.67;;
67248;SDS011;63247;54.300;18.592;2023-05-07T03:22:02;15.47;;;6.60;;
67248;SDS011;63247;54.300;18.592;2023-05-07T03:24:28;18.33;;;7.03;;
67248;SDS011;63247;54.300;18.592;2023-05-07T03:26:53;18.33;;;7.10;;
67248;SDS011;63247;54.300;18.592;2023-05-07T03:29:19;20.50;;;7.13;;
67248;SDS011;63247;54.300;18.592;2023-05-07T03:31:44;21.92;;;7.20;;
67248;SDS011;63247;54.300;18.592;2023-05-07T03:34:10;17.97;;;7.37;;
67248;SDS011;63247;54.300;18.592;2023-05-07T03:36:35;16.93;;;7.60;;
67248;SDS011;63247;54.300;18.592;2023-05-07T03:39:00;17.65;;;7.50;;
67248;SDS011;63247;54.300;18.592;2023-05-07T03:41:26;14.43;;;6.40;;
67248;SDS011;63247;54.300;18.592;2023-05-07T03:43:51;18.23;;;6.53;;
67248;SDS011;63247;54.300;18.592;2023-05-07T03:46:17;15.87;;;6.87;;
67248;SDS011;63247;54.300;18.592;2023-05-07T03:48:42;18.07;;;7.13;;
67248;SDS011;63247;54.300;18.592;2023-05-07T03:51:08;18.73;;;7.70;;
67248;SDS011;63247;54.300;18.592;2023-05-07T03:53:33;17.83;;;7.07;;
67248;SDS011;63247;54.300;18.592;2023-05-07T03:55:58;15.48;;;6.80;;
67248;SDS011;63247;54.300;18.592;2023-05-07T03:58:24;16.07;;;6.80;;
67248;SDS011;63247;54.300;18.592;2023-05-07T04:00:49;17.33;;;6.90;;
67248;SDS011;63247;54.300;18.592;2023-05-07T04:03:14;18.43;;;7.23;;
67248;SDS011;63247;54.300;18.592;2023-05-07T04:05:40;17.00;;;7.20;;
67248;SDS011;63247;54.300;18.592;2023-05-07T04:08:05;19.95;;;7.57;;
67248;SDS011;63247;54.300;18.592;2023-05-07T04:10:31;17.83;;;6.53;;
67248;SDS011;63247;54.300;18.592;2023-05-07T04:12:56;15.23;;;6.43;;
67248;SDS011;63247;54.300;18.592;2023-05-07T04:15:22;15.00;;;6.07;;
67248;SDS011;63247;54.300;18.592;2023-05-07T04:17:48;14.10;;;5.22;;
67248;SDS011;63247;54.300;18.592;2023-05-07T04:20:15;13.00;;;5.33;;
67248;SDS011;63247;54.300;18.592;2023-05-07T04:22:41;14.43;;;5.22;;
67248;SDS011;63247;54.300;18.592;2023-05-07T04:25:07;15.70;;;5.68;;
67248;SDS011;63247;54.300;18.592;2023-05-07T04:27:36;13.10;;;5.55;;
67248;SDS011;63247;54.300;18.592;2023-05-07T04:30:02;14.70;;;6.40;;
67248;SDS011;63247;54.300;18.592;2023-05-07T04:32:29;14.85;;;6.10;;
67248;SDS011;63247;54.300;18.592;2023-05-07T04:34:55;14.98;;;5.70;;
67248;SDS011;63247;54.300;18.592;2023-05-07T04:37:21;17.70;;;6.15;;
67248;SDS011;63247;54.300;18.592;2023-05-07T04:39:47;12.53;;;5.37;;
67248;SDS011;63247;54.300;18.592;2023-05-07T04:42:15;14.43;;;5.63;;
67248;SDS011;63247;54.300;18.592;2023-05-07T04:44:42;12.80;;;5.07;;
67248;SDS011;63247;54.300;18.592;2023-05-07T04:47:08;13.15;;;5.20;;
67248;SDS011;63247;54.300;18.592;2023-05-07T04:49:33;14.10;;;4.73;;
67248;SDS011;63247;54.300;18.592;2023-05-07T04:51:59;10.70;;;4.50;;
67248;SDS011;63247;54.300;18.592;2023-05-07T04:54:24;10.77;;;4.60;;
67248;SDS011;63247;54.300;18.592;2023-05-07T04:56:50;8.50;;;4.40;;
67248;SDS011;63247;54.300;18.592;2023-05-07T04:59:15;9.23;;;4.27;;
67248;SDS011;63247;54.300;18.592;2023-05-07T05:01:41;11.13;;;4.22;;
67248;SDS011;63247;54.300;18.592;2023-05-07T05:04:06;9.93;;;4.38;;
67248;SDS011;63247;54.300;18.592;2023-05-07T05:06:31;7.80;;;3.70;;
67248;SDS011;63247;54.300;18.592;2023-05-07T05:08:57;8.70;;;3.90;;
67248;SDS011;63247;54.300;18.592;2023-05-07T05:11:22;7.67;;;3.30;;
67248;SDS011;63247;54.300;18.592;2023-05-07T05:13:48;8.30;;;3.77;;
67248;SDS011;63247;54.300;18.592;2023-05-07T05:16:14;8.55;;;3.55;;
67248;SDS011;63247;54.300;18.592;2023-05-07T05:18:40;11.48;;;4.38;;
67248;SDS011;63247;54.300;18.592;2023-05-07T05:21:05;7.83;;;4.00;;
67248;SDS011;63247;54.300;18.592;2023-05-07T05:23:31;6.20;;;3.47;;
67248;SDS011;63247;54.300;18.592;2023-05-07T05:25:57;7.33;;;3.70;;
67248;SDS011;63247;54.300;18.592;2023-05-07T05:28:22;6.13;;;3.38;;
67248;SDS011;63247;54.300;18.592;2023-05-07T05:30:48;7.85;;;3.30;;
67248;SDS011;63247;54.300;18.592;2023-05-07T05:33:14;9.77;;;3.27;;
67248;SDS011;63247;54.300;18.592;2023-05-07T05:35:39;8.50;;;3.70;;
67248;SDS011;63247;54.300;18.592;2023-05-07T05:38:05;6.70;;;3.37;;
67248;SDS011;63247;54.300;18.592;2023-05-07T05:40:30;8.00;;;3.23;;
67248;SDS011;63247;54.300;18.592;2023-05-07T05:42:56;7.67;;;3.70;;
67248;SDS011;63247;54.300;18.592;2023-05-07T05:45:21;8.10;;;3.60;;
67248;SDS011;63247;54.300;18.592;2023-05-07T05:47:46;9.52;;;3.20;;
67248;SDS011;63247;54.300;18.592;2023-05-07T05:50:12;7.53;;;3.40;;
67248;SDS011;63247;54.300;18.592;2023-05-07T05:52:37;8.60;;;3.20;;
67248;SDS011;63247;54.300;18.592;2023-05-07T05:55:03;7.85;;;3.03;;
67248;SDS011;63247;54.300;18.592;2023-05-07T05:57:29;5.77;;;2.93;;
67248;SDS011;63247;54.300;18.592;2023-05-07T05:59:54;6.93;;;3.67;;
67248;SDS011;63247;54.300;18.592;2023-05-07T06:02:20;6.67;;;3.10;;
67248;SDS011;63247;54.300;18.592;2023-05-07T06:04:45;6.97;;;3.63;;
67248;SDS011;63247;54.300;18.592;2023-05-07T06:07:11;6.10;;;3.23;;
67248;SDS011;63247;54.300;18.592;2023-05-07T06:09:36;6.93;;;3.57;;
67248;SDS011;63247;54.300;18.592;2023-05-07T06:12:02;7.93;;;3.53;;
67248;SDS011;63247;54.300;18.592;2023-05-07T06:14:33;6.03;;;3.30;;
67248;SDS011;63247;54.300;18.592;2023-05-07T06:17:28;7.07;;;3.70;;
67248;SDS011;63247;54.300;18.592;2023-05-07T06:19:54;10.00;;;3.60;;
67248;SDS011;63247;54.300;18.592;2023-05-07T06:22:19;8.20;;;3.33;;
67248;SDS011;63247;54.300;18.592;2023-05-07T06:24:44;6.80;;;3.40;;
67248;SDS011;63247;54.300;18.592;2023-05-07T06:27:11;6.17;;;3.10;;
67248;SDS011;63247;54.300;18.592;2023-05-07T06:29:36;7.50;;;3.30;;
67248;SDS011;63247;54.300;18.592;2023-05-07T06:32:08;10.13;;;4.90;;
67248;SDS011;63247;54.300;18.592;2023-05-07T06:34:34;7.65;;;3.78;;
67248;SDS011;63247;54.300;18.592;2023-05-07T06:37:00;7.72;;;3.50;;
67248;SDS011;63247;54.300;18.592;2023-05-07T06:39:26;8.35;;;3.83;;
67248;SDS011;63247;54.300;18.592;2023-05-07T06:41:51;8.87;;;4.00;;
67248;SDS011;63247;54.300;18.592;2023-05-07T06:44:17;8.63;;;3.53;;
67248;SDS011;63247;54.300;18.592;2023-05-07T06:46:42;6.77;;;3.27;;
67248;SDS011;63247;54.300;18.592;2023-05-07T06:49:08;7.18;;;3.53;;
67248;SDS011;63247;54.300;18.592;2023-05-07T06:51:33;8.87;;;4.00;;
67248;SDS011;63247;54.300;18.592;2023-05-07T06:53:59;8.00;;;3.83;;
67248;SDS011;63247;54.300;18.592;2023-05-07T06:56:24;6.60;;;3.60;;
67248;SDS011;63247;54.300;18.592;2023-05-07T06:58:50;7.72;;;3.10;;
67248;SDS011;63247;54.300;18.592;2023-05-07T07:01:15;6.30;;;3.80;;
67248;SDS011;63247;54.300;18.592;2023-05-07T07:03:41;6.10;;;3.37;;
67248;SDS011;63247;54.300;18.592;2023-05-07T07:06:06;8.55;;;3.70;;
67248;SDS011;63247;54.300;18.592;2023-05-07T07:08:32;6.37;;;3.73;;
67248;SDS011;63247;54.300;18.592;2023-05-07T07:10:57;7.37;;;3.43;;
67248;SDS011;63247;54.300;18.592;2023-05-07T07:13:22;8.77;;;3.70;;
67248;SDS011;63247;54.300;18.592;2023-05-07T07:15:48;5.50;;;3.00;;
67248;SDS011;63247;54.300;18.592;2023-05-07T07:18:16;6.53;;;3.13;;
67248;SDS011;63247;54.300;18.592;2023-05-07T07:20:41;6.43;;;3.42;;
67248;SDS011;63247;54.300;18.592;2023-05-07T07:23:06;7.53;;;3.30;;
67248;SDS011;63247;54.300;18.592;2023-05-07T07:25:32;6.43;;;3.30;;
67248;SDS011;63247;54.300;18.592;2023-05-07T07:27:57;5.27;;;2.83;;
67248;SDS011;63247;54.300;18.592;2023-05-07T07:30:23;6.73;;;3.33;;
67248;SDS011;63247;54.300;18.592;2023-05-07T07:32:48;7.50;;;3.45;;
67248;SDS011;63247;54.300;18.592;2023-05-07T07:35:14;6.40;;;3.13;;
67248;SDS011;63247;54.300;18.592;2023-05-07T07:37:39;6.67;;;3.03;;
67248;SDS011;63247;54.300;18.592;2023-05-07T07:40:05;6.37;;;3.20;;
67248;SDS011;63247;54.300;18.592;2023-05-07T07:42:31;5.75;;;2.92;;
67248;SDS011;63247;54.300;18.592;2023-05-07T07:44:56;5.85;;;2.70;;
67248;SDS011;63247;54.300;18.592;2023-05-07T07:47:22;5.47;;;3.00;;
67248;SDS011;63247;54.300;18.592;2023-05-07T07:49:48;6.05;;;2.95;;
67248;SDS011;63247;54.300;18.592;2023-05-07T07:52:13;5.10;;;2.93;;
67248;SDS011;63247;54.300;18.592;2023-05-07T07:54:38;4.50;;;2.80;;
67248;SDS011;63247;54.300;18.592;2023-05-07T07:57:04;7.37;;;2.90;;
67248;SDS011;63247;54.300;18.592;2023-05-07T07:59:30;5.80;;;2.60;;
67248;SDS011;63247;54.300;18.592;2023-05-07T08:01:55;5.27;;;2.70;;
67248;SDS011;63247;54.300;18.592;2023-05-07T08:04:22;4.50;;;2.42;;
67248;SDS011;63247;54.300;18.592;2023-05-07T08:06:47;4.47;;;2.50;;
67248;SDS011;63247;54.300;18.592;2023-05-07T08:09:13;4.85;;;2.50;;
67248;SDS011;63247;54.300;18.592;2023-05-07T08:11:39;4.20;;;2.40;;
67248;SDS011;63247;54.300;18.592;2023-05-07T08:14:04;6.85;;;2.70;;
67248;SDS011;63247;54.300;18.592;2023-05-07T08:16:30;5.03;;;2.47;;
67248;SDS011;63247;54.300;18.592;2023-05-07T08:18:55;5.33;;;2.47;;
67248;SDS011;63247;54.300;18.592;2023-05-07T08:21:22;8.30;;;2.28;;
67248;SDS011;63247;54.300;18.592;2023-05-07T08:23:47;5.40;;;2.30;;
67248;SDS011;63247;54.300;18.592;2023-05-07T08:26:13;4.47;;;2.60;;
67248;SDS011;63247;54.300;18.592;2023-05-07T08:28:38;4.23;;;2.30;;
67248;SDS011;63247;54.300;18.592;2023-05-07T08:31:04;3.88;;;2.13;;
67248;SDS011;63247;54.300;18.592;2023-05-07T08:33:30;5.40;;;2.67;;
67248;SDS011;63247;54.300;18.592;2023-05-07T08:35:56;4.32;;;2.38;;
67248;SDS011;63247;54.300;18.592;2023-05-07T08:38:21;4.17;;;2.10;;
67248;SDS011;63247;54.300;18.592;2023-05-07T08:40:46;5.23;;;2.50;;
67248;SDS011;63247;54.300;18.592;2023-05-07T08:43:13;5.25;;;2.30;;
67248;SDS011;63247;54.300;18.592;2023-05-07T08:45:40;4.50;;;2.20;;
67248;SDS011;63247;54.300;18.592;2023-05-07T08:48:08;4.80;;;2.13;;
67248;SDS011;63247;54.300;18.592;2023-05-07T08:50:38;3.78;;;1.70;;
67248;SDS011;63247;54.300;18.592;2023-05-07T08:53:04;6.17;;;1.83;;
67248;SDS011;63247;54.300;18.592;2023-05-07T08:55:30;6.63;;;1.52;;
67248;SDS011;63247;54.300;18.592;2023-05-07T08:57:55;4.67;;;2.00;;
67248;SDS011;63247;54.300;18.592;2023-05-07T09:00:21;6.80;;;1.92;;
67248;SDS011;63247;54.300;18.592;2023-05-07T09:02:46;6.97;;;2.20;;
67248;SDS011;63247;54.300;18.592;2023-05-07T09:05:12;6.10;;;2.00;;
67248;SDS011;63247;54.300;18.592;2023-05-07T09:07:37;4.47;;;2.13;;
67248;SDS011;63247;54.300;18.592;2023-05-07T09:10:03;6.23;;;2.50;;
67248;SDS011;63247;54.300;18.592;2023-05-07T09:12:29;5.78;;;2.90;;
67248;SDS011;63247;54.300;18.592;2023-05-07T09:17:41;6.90;;;2.78;;
67248;SDS011;63247;54.300;18.592;2023-05-07T09:20:07;5.60;;;2.80;;
67248;SDS011;63247;54.300;18.592;2023-05-07T09:22:33;8.05;;;2.92;;
67248;SDS011;63247;54.300;18.592;2023-05-07T09:25:00;7.55;;;3.10;;
67248;SDS011;63247;54.300;18.592;2023-05-07T09:27:26;7.83;;;2.83;;
67248;SDS011;63247;54.300;18.592;2023-05-07T09:29:51;5.20;;;2.40;;
67248;SDS011;63247;54.300;18.592;2023-05-07T09:32:17;5.63;;;2.67;;
67248;SDS011;63247;54.300;18.592;2023-05-07T09:34:42;5.73;;;2.20;;
67248;SDS011;63247;54.300;18.592;2023-05-07T09:37:08;7.80;;;3.27;;
67248;SDS011;63247;54.300;18.592;2023-05-07T09:39:44;5.00;;;2.60;;
67248;SDS011;63247;54.300;18.592;2023-05-07T09:42:10;5.53;;;2.90;;
67248;SDS011;63247;54.300;18.592;2023-05-07T09:44:37;5.83;;;2.73;;
67248;SDS011;63247;54.300;18.592;2023-05-07T09:47:06;7.55;;;2.80;;
67248;SDS011;63247;54.300;18.592;2023-05-07T09:49:36;6.47;;;2.80;;
67248;SDS011;63247;54.300;18.592;2023-05-07T09:52:07;5.95;;;2.28;;
67248;SDS011;63247;54.300;18.592;2023-05-07T09:54:34;8.43;;;2.67;;
67248;SDS011;63247;54.300;18.592;2023-05-07T09:57:02;4.90;;;2.20;;
67248;SDS011;63247;54.300;18.592;2023-05-07T09:59:29;6.90;;;2.10;;
67248;SDS011;63247;54.300;18.592;2023-05-07T10:01:57;5.97;;;2.03;;
67248;SDS011;63247;54.300;18.592;2023-05-07T10:04:24;5.45;;;2.35;;
67248;SDS011;63247;54.300;18.592;2023-05-07T10:06:51;5.03;;;2.45;;
67248;SDS011;63247;54.300;18.592;2023-05-07T10:09:16;4.72;;;2.35;;
67248;SDS011;63247;54.300;18.592;2023-05-07T10:11:43;5.63;;;2.50;;
67248;SDS011;63247;54.300;18.592;2023-05-07T10:14:08;5.97;;;2.47;;
67248;SDS011;63247;54.300;18.592;2023-05-07T10:16:35;5.13;;;2.47;;
67248;SDS011;63247;54.300;18.592;2023-05-07T10:19:02;5.88;;;2.40;;
67248;SDS011;63247;54.300;18.592;2023-05-07T10:21:29;5.45;;;2.20;;
67248;SDS011;63247;54.300;18.592;2023-05-07T10:24:02;6.67;;;2.30;;
67248;SDS011;63247;54.300;18.592;2023-05-07T10:26:35;4.25;;;1.92;;
67248;SDS011;63247;54.300;18.592;2023-05-07T10:29:05;6.75;;;2.08;;
67248;SDS011;63247;54.300;18.592;2023-05-07T10:31:48;4.87;;;2.00;;
67248;SDS011;63247;54.300;18.592;2023-05-07T10:34:21;5.20;;;2.17;;
67248;SDS011;63247;54.300;18.592;2023-05-07T10:36:49;4.47;;;1.83;;
67248;SDS011;63247;54.300;18.592;2023-05-07T10:39:16;5.93;;;2.00;;
67248;SDS011;63247;54.300;18.592;2023-05-07T10:41:42;5.47;;;2.40;;
67248;SDS011;63247;54.300;18.592;2023-05-07T10:44:08;7.05;;;2.22;;
67248;SDS011;63247;54.300;18.592;2023-05-07T10:46:33;5.03;;;1.90;;
67248;SDS011;63247;54.300;18.592;2023-05-07T10:51:25;4.67;;;1.73;;
67248;SDS011;63247;54.300;18.592;2023-05-07T10:56:41;4.13;;;1.80;;
67248;SDS011;63247;54.300;18.592;2023-05-07T11:04:21;3.80;;;1.77;;
67248;SDS011;63247;54.300;18.592;2023-05-07T11:12:16;4.60;;;1.70;;
67248;SDS011;63247;54.300;18.592;2023-05-07T11:17:08;7.87;;;2.50;;
67248;SDS011;63247;54.300;18.592;2023-05-07T11:19:50;6.90;;;1.98;;
67248;SDS011;63247;54.300;18.592;2023-05-07T11:25:00;5.60;;;2.10;;
67248;SDS011;63247;54.300;18.592;2023-05-07T11:27:30;5.33;;;2.00;;
67248;SDS011;63247;54.300;18.592;2023-05-07T11:29:57;7.70;;;2.20;;
67248;SDS011;63247;54.300;18.592;2023-05-07T11:32:26;9.63;;;1.90;;
67248;SDS011;63247;54.300;18.592;2023-05-07T11:34:54;5.07;;;2.07;;
67248;SDS011;63247;54.300;18.592;2023-05-07T11:37:20;3.97;;;1.88;;
67248;SDS011;63247;54.300;18.592;2023-05-07T11:39:46;5.57;;;2.10;;
67248;SDS011;63247;54.300;18.592;2023-05-07T11:42:30;4.17;;;2.10;;
67248;SDS011;63247;54.300;18.592;2023-05-07T11:45:00;4.75;;;2.10;;
67248;SDS011;63247;54.300;18.592;2023-05-07T11:47:26;4.53;;;2.03;;
67248;SDS011;63247;54.300;18.592;2023-05-07T11:49:55;3.50;;;1.40;;
67248;SDS011;63247;54.300;18.592;2023-05-07T11:52:22;5.65;;;1.77;;
67248;SDS011;63247;54.300;18.592;2023-05-07T11:54:49;5.60;;;2.10;;
67248;SDS011;63247;54.300;18.592;2023-05-07T11:57:21;6.82;;;2.50;;
67248;SDS011;63247;54.300;18.592;2023-05-07T11:59:47;4.87;;;2.30;;
67248;SDS011;63247;54.300;18.592;2023-05-07T12:02:16;6.55;;;2.25;;
67248;SDS011;63247;54.300;18.592;2023-05-07T12:04:42;6.33;;;2.40;;
67248;SDS011;63247;54.300;18.592;2023-05-07T12:07:11;4.90;;;2.05;;
67248;SDS011;63247;54.300;18.592;2023-05-07T12:09:38;4.20;;;1.90;;
67248;SDS011;63247;54.300;18.592;2023-05-07T12:12:04;7.07;;;2.00;;
67248;SDS011;63247;54.300;18.592;2023-05-07T12:14:30;5.88;;;2.28;;
67248;SDS011;63247;54.300;18.592;2023-05-07T12:16:57;5.38;;;2.17;;
67248;SDS011;63247;54.300;18.592;2023-05-07T12:19:24;6.28;;;1.88;;
67248;SDS011;63247;54.300;18.592;2023-05-07T12:21:49;7.10;;;2.40;;
67248;SDS011;63247;54.300;18.592;2023-05-07T12:24:15;7.63;;;2.20;;
67248;SDS011;63247;54.300;18.592;2023-05-07T12:26:40;6.88;;;3.08;;
67248;SDS011;63247;54.300;18.592;2023-05-07T12:29:06;9.23;;;2.90;;
67248;SDS011;63247;54.300;18.592;2023-05-07T12:31:32;5.70;;;2.33;;
67248;SDS011;63247;54.300;18.592;2023-05-07T12:33:57;5.20;;;2.10;;
67248;SDS011;63247;54.300;18.592;2023-05-07T12:36:23;7.07;;;2.90;;
67248;SDS011;63247;54.300;18.592;2023-05-07T12:38:51;7.95;;;2.50;;
67248;SDS011;63247;54.300;18.592;2023-05-07T12:41:16;6.40;;;2.50;;
67248;SDS011;63247;54.300;18.592;2023-05-07T12:43:46;4.97;;;2.53;;
67248;SDS011;63247;54.300;18.592;2023-05-07T12:46:12;4.15;;;1.98;;
67248;SDS011;63247;54.300;18.592;2023-05-07T12:48:45;43.33;;;20.30;;
67248;SDS011;63247;54.300;18.592;2023-05-07T12:51:11;14.02;;;5.93;;
67248;SDS011;63247;54.300;18.592;2023-05-07T12:53:42;15.10;;;5.87;;
67248;SDS011;63247;54.300;18.592;2023-05-07T12:56:08;20.98;;;10.02;;
67248;SDS011;63247;54.300;18.592;2023-05-07T12:58:34;23.02;;;7.65;;
67248;SDS011;63247;54.300;18.592;2023-05-07T13:01:05;5.70;;;2.63;;
67248;SDS011;63247;54.300;18.592;2023-05-07T13:03:33;5.57;;;2.38;;
67248;SDS011;63247;54.300;18.592;2023-05-07T13:06:03;8.83;;;3.00;;
67248;SDS011;63247;54.300;18.592;2023-05-07T13:08:34;11.45;;;4.45;;
67248;SDS011;63247;54.300;18.592;2023-05-07T13:11:10;5.63;;;2.22;;
67248;SDS011;63247;54.300;18.592;2023-05-07T13:13:36;6.97;;;2.78;;
67248;SDS011;63247;54.300;18.592;2023-05-07T13:16:03;6.22;;;2.30;;
67248;SDS011;63247;54.300;18.592;2023-05-07T13:18:31;6.83;;;2.60;;
67248;SDS011;63247;54.300;18.592;2023-05-07T13:20:58;6.60;;;2.35;;
67248;SDS011;63247;54.300;18.592;2023-05-07T13:23:25;6.55;;;2.30;;
67248;SDS011;63247;54.300;18.592;2023-05-07T13:25:50;6.75;;;2.50;;
67248;SDS011;63247;54.300;18.592;2023-05-07T13:28:18;6.60;;;2.90;;
67248;SDS011;63247;54.300;18.592;2023-05-07T13:30:45;6.35;;;2.80;;
67248;SDS011;63247;54.300;18.592;2023-05-07T13:33:10;6.18;;;2.13;;
67248;SDS011;63247;54.300;18.592;2023-05-07T13:35:36;6.45;;;2.53;;
67248;SDS011;63247;54.300;18.592;2023-05-07T13:38:01;6.37;;;2.90;;
67248;SDS011;63247;54.300;18.592;2023-05-07T13:40:27;5.53;;;2.43;;
67248;SDS011;63247;54.300;18.592;2023-05-07T13:42:53;6.80;;;2.72;;
67248;SDS011;63247;54.300;18.592;2023-05-07T13:45:19;6.03;;;2.43;;
67248;SDS011;63247;54.300;18.592;2023-05-07T13:47:45;7.95;;;2.88;;
67248;SDS011;63247;54.300;18.592;2023-05-07T13:50:11;5.63;;;2.55;;
67248;SDS011;63247;54.300;18.592;2023-05-07T13:52:39;5.53;;;2.40;;
67248;SDS011;63247;54.300;18.592;2023-05-07T13:55:06;7.30;;;2.97;;
67248;SDS011;63247;54.300;18.592;2023-05-07T13:57:32;7.68;;;2.42;;
67248;SDS011;63247;54.300;18.592;2023-05-07T13:59:57;7.33;;;2.70;;
67248;SDS011;63247;54.300;18.592;2023-05-07T14:02:23;7.95;;;2.83;;
67248;SDS011;63247;54.300;18.592;2023-05-07T14:04:48;6.07;;;2.28;;
67248;SDS011;63247;54.300;18.592;2023-05-07T14:07:14;7.40;;;3.10;;
67248;SDS011;63247;54.300;18.592;2023-05-07T14:09:40;5.40;;;2.13;;
67248;SDS011;63247;54.300;18.592;2023-05-07T14:12:05;5.70;;;2.70;;
67248;SDS011;63247;54.300;18.592;2023-05-07T14:14:31;6.40;;;2.57;;
67248;SDS011;63247;54.300;18.592;2023-05-07T14:16:56;5.90;;;2.27;;
67248;SDS011;63247;54.300;18.592;2023-05-07T14:19:22;6.18;;;2.33;;
67248;SDS011;63247;54.300;18.592;2023-05-07T14:21:48;7.43;;;2.57;;
67248;SDS011;63247;54.300;18.592;2023-05-07T14:24:13;10.88;;;2.90;;
67248;SDS011;63247;54.300;18.592;2023-05-07T14:26:39;6.65;;;2.22;;
67248;SDS011;63247;54.300;18.592;2023-05-07T14:29:05;7.70;;;2.53;;
67248;SDS011;63247;54.300;18.592;2023-05-07T14:31:30;6.53;;;2.33;;
67248;SDS011;63247;54.300;18.592;2023-05-07T14:33:56;6.97;;;2.60;;
67248;SDS011;63247;54.300;18.592;2023-05-07T14:36:23;6.53;;;2.63;;
67248;SDS011;63247;54.300;18.592;2023-05-07T14:38:51;7.22;;;2.60;;
67248;SDS011;63247;54.300;18.592;2023-05-07T14:41:20;10.25;;;3.00;;
67248;SDS011;63247;54.300;18.592;2023-05-07T14:43:46;8.85;;;2.67;;
67248;SDS011;63247;54.300;18.592;2023-05-07T14:46:15;6.97;;;2.50;;
67248;SDS011;63247;54.300;18.592;2023-05-07T14:48:42;6.53;;;2.33;;
67248;SDS011;63247;54.300;18.592;2023-05-07T14:51:08;7.93;;;2.85;;
67248;SDS011;63247;54.300;18.592;2023-05-07T14:53:34;8.80;;;2.70;;